Time;durP1;ratioP1;P1;durP2;ratioP2;P2;SDS_P1;SDS_P2;PMS_P1;PMS_P2;Temp;Humidity;BMP_temperature;BMP_pressure;BME280_temperature;BME280_humidity;BME280_pressure;Samples;Min_cycle;Max_cycle;Signal;HPM_P1;HPM_P2
2022/08/16 00:01:38;;;;;;;13.63;12.30;;;;;;;21.20;100.00;100569.41;6180116;23;20467;-79
2022/08/16 00:04:08;;;;;;;14.10;12.13;;;;;;;21.19;100.00;100569.47;6155416;23;20383;-79
2022/08/16 00:06:37;;;;;;;15.80;13.45;;;;;;;21.18;100.00;100568.59;6160609;23;20025;-79
2022/08/16 00:09:07;;;;;;;16.83;14.35;;;;;;;21.16;100.00;100566.94;6150761;23;20044;-79
2022/08/16 00:11:39;;;;;;;16.25;14.52;;;;;;;21.13;100.00;100567.06;6174151;23;20028;-79
2022/08/16 00:14:13;;;;;;;15.48;13.88;;;;;;;21.10;100.00;100559.19;6143523;23;20017;-79
2022/08/16 00:16:43;;;;;;;22.90;14.98;;;;;;;21.07;100.00;100562.00;6184641;23;20327;-79
2022/08/16 00:19:33;;;;;;;18.63;16.05;;;;;;;21.05;100.00;100559.38;6183324;23;20025;-81
2022/08/16 00:22:10;;;;;;;19.05;16.15;;;;;;;21.01;100.00;100555.97;6159255;23;20028;-78
2022/08/16 00:24:43;;;;;;;20.55;16.35;;;;;;;21.00;100.00;100556.03;6177671;23;20022;-79
2022/08/16 00:27:18;;;;;;;18.13;16.33;;;;;;;20.98;100.00;100556.13;6182520;23;20017;-79
2022/08/16 00:29:49;;;;;;;20.27;16.92;;;;;;;20.96;100.00;100558.00;6181183;23;20017;-79
2022/08/16 00:32:41;;;;;;;16.85;15.18;;;;;;;20.94;100.00;100565.19;6184767;23;20021;-79
2022/08/16 00:35:16;;;;;;;17.90;16.10;;;;;;;20.93;100.00;100557.25;6166197;23;20463;-79
2022/08/16 00:37:46;;;;;;;18.52;16.65;;;;;;;20.91;100.00;100565.34;6184741;23;20025;-79
2022/08/16 00:40:33;;;;;;;17.67;15.88;;;;;;;20.89;100.00;100561.88;6166903;23;20020;-79
2022/08/16 00:43:11;;;;;;;22.13;17.45;;;;;;;20.88;100.00;100557.44;6172617;23;20028;-78
2022/08/16 00:46:11;;;;;;;17.52;15.77;;;;;;;20.89;100.00;100559.19;6162003;23;20025;-79
2022/08/16 00:49:00;;;;;;;18.95;17.17;;;;;;;20.88;100.00;100554.78;6181156;23;20017;-79
2022/08/16 00:51:30;;;;;;;20.88;16.60;;;;;;;20.88;100.00;100562.81;6151636;23;20013;-80
2022/08/16 00:53:58;;;;;;;18.75;16.75;;;;;;;20.89;100.00;100566.34;6140965;23;20017;-79
2022/08/16 00:56:30;;;;;;;19.08;16.92;;;;;;;20.88;100.00;100568.16;6143666;23;20332;-79
2022/08/16 00:59:21;;;;;;;19.67;16.95;;;;;;;20.88;100.00;100580.69;6184731;23;20707;-79
2022/08/16 01:01:52;;;;;;;21.95;16.20;;;;;;;20.85;100.00;100584.38;6182213;23;20017;-80
2022/08/16 01:04:25;;;;;;;20.80;16.80;;;;;;;20.83;100.00;100576.41;6173471;23;20577;-80
2022/08/16 01:07:00;;;;;;;19.40;16.92;;;;;;;20.83;100.00;100572.84;6179303;23;20017;-80
2022/08/16 01:09:35;;;;;;;19.52;17.13;;;;;;;20.80;100.00;100565.81;6145967;23;20025;-80
2022/08/16 01:12:09;;;;;;;18.88;16.95;;;;;;;20.80;100.00;100564.97;6161870;23;20032;-80
2022/08/16 01:14:57;;;;;;;20.88;17.55;;;;;;;20.77;100.00;100568.63;6188353;23;20451;-80
2022/08/16 01:17:29;;;;;;;20.10;17.95;;;;;;;20.77;100.00;100557.91;6183689;23;20230;-80
2022/08/16 01:20:10;;;;;;;19.63;17.63;;;;;;;20.76;100.00;100558.88;6128024;23;20029;-81
2022/08/16 01:23:07;;;;;;;21.65;16.92;;;;;;;20.76;100.00;100566.03;6177878;23;20021;-80
2022/08/16 01:25:43;;;;;;;19.77;17.73;;;;;;;20.73;100.00;100567.03;6158373;23;20028;-79
2022/08/16 01:28:28;;;;;;;20.45;17.50;;;;;;;20.73;100.00;100566.16;6188218;23;20020;-79
2022/08/16 01:30:59;;;;;;;21.13;18.30;;;;;;;20.72;100.00;100559.06;6176019;23;20021;-80
2022/08/16 01:33:29;;;;;;;20.58;18.38;;;;;;;20.73;100.00;100550.09;6149930;23;20235;-80
2022/08/16 01:36:05;;;;;;;28.00;19.90;;;;;;;20.71;100.00;100551.97;6156219;23;20028;-80
2022/08/16 01:38:42;;;;;;;23.83;19.60;;;;;;;20.70;100.00;100558.25;6177652;23;20032;-80
2022/08/16 01:41:28;;;;;;;21.48;19.17;;;;;;;20.69;100.00;100556.53;6166294;23;20402;-79
2022/08/16 01:43:59;;;;;;;21.48;19.25;;;;;;;20.68;100.00;100560.13;6159926;23;20024;-80
2022/08/16 01:46:45;;;;;;;22.02;19.48;;;;;;;20.67;100.00;100555.72;6184980;23;20017;-79
2022/08/16 01:49:41;;;;;;;21.42;19.17;;;;;;;20.66;100.00;100551.28;6162421;23;20017;-80
2022/08/16 01:52:30;;;;;;;22.63;18.63;;;;;;;20.63;100.00;100538.91;6112228;23;20039;-79
2022/08/16 01:55:17;;;;;;;21.73;19.55;;;;;;;20.62;100.00;100547.88;6106401;23;20025;-81
2022/08/16 01:57:48;;;;;;;25.40;20.40;;;;;;;20.62;100.00;100550.56;6116007;23;20026;-80
2022/08/16 02:00:25;;;;;;;23.90;21.48;;;;;;;20.62;100.00;100547.88;6108463;23;20037;-80
2022/08/16 02:02:58;;;;;;;24.75;21.67;;;;;;;20.61;100.00;100546.16;6120416;23;20029;-80
2022/08/16 02:05:28;;;;;;;23.30;19.83;;;;;;;20.59;100.00;100543.50;6078814;23;20021;-81
2022/08/16 02:07:59;;;;;;;22.10;19.85;;;;;;;20.58;100.00;100544.41;6132197;23;20025;-80
2022/08/16 02:10:30;;;;;;;25.35;21.98;;;;;;;20.59;100.00;100548.00;6121147;23;20032;-80
2022/08/16 02:13:05;;;;;;;22.92;20.48;;;;;;;20.59;100.00;100542.63;6053338;23;20463;-80
2022/08/16 02:15:36;;;;;;;25.02;22.35;;;;;;;20.56;100.00;100542.75;6102503;23;20021;-81
2022/08/16 02:18:09;;;;;;;26.52;21.92;;;;;;;20.53;100.00;100537.53;6099057;23;20025;-79
2022/08/16 02:20:46;;;;;;;26.88;22.42;;;;;;;20.51;100.00;100536.72;6088847;23;20271;-78
2022/08/16 02:23:17;;;;;;;23.63;21.15;;;;;;;20.49;100.00;100535.94;6137010;23;20017;-81
2022/08/16 02:25:46;;;;;;;24.00;21.50;;;;;;;20.47;100.00;100541.34;6173927;23;20031;-80
2022/08/16 02:28:24;;;;;;;25.33;22.60;;;;;;;20.44;100.00;100534.31;6131073;23;20020;-79
2022/08/16 02:30:56;;;;;;;23.45;20.80;;;;;;;20.42;100.00;100538.88;6184730;23;20074;-79
2022/08/16 02:33:26;;;;;;;25.15;22.55;;;;;;;20.41;100.00;100552.31;6149726;23;20021;-80
2022/08/16 02:36:32;;;;;;;24.45;21.77;;;;;;;20.39;100.00;100538.13;6164125;23;20332;-79
2022/08/16 02:39:19;;;;;;;25.70;22.20;;;;;;;20.38;100.00;100549.78;6153496;23;20021;-79
2022/08/16 02:41:52;;;;;;;26.58;23.00;;;;;;;20.35;100.00;100547.22;6183879;23;20021;-79
2022/08/16 02:44:25;;;;;;;26.10;22.55;;;;;;;20.33;100.00;100555.31;6140037;23;20028;-80
2022/08/16 02:46:57;;;;;;;25.00;22.30;;;;;;;20.30;100.00;100554.56;6175285;23;20351;-79
2022/08/16 02:49:28;;;;;;;29.58;22.35;;;;;;;20.29;100.00;100563.56;6181542;23;20043;-79
2022/08/16 02:52:17;;;;;;;31.15;24.00;;;;;;;20.25;100.00;100557.44;6150209;23;20021;-79
2022/08/16 02:55:00;;;;;;;29.77;22.98;;;;;;;20.22;100.00;100554.91;6185475;23;20025;-79
2022/08/16 02:57:29;;;;;;;26.98;22.90;;;;;;;20.20;100.00;100560.31;6146616;23;20021;-81
2022/08/16 03:00:08;;;;;;;29.30;23.52;;;;;;;20.18;100.00;100551.47;6109764;23;20029;-79
2022/08/16 03:02:58;;;;;;;26.60;23.85;;;;;;;20.16;100.00;100547.13;6185676;23;20010;-82
2022/08/16 03:05:27;;;;;;;26.85;23.25;;;;;;;20.12;100.00;100543.72;6147896;23;20021;-80
2022/08/16 03:08:01;;;;;;;26.48;23.63;;;;;;;20.11;100.00;100563.34;6158103;23;20025;-79
2022/08/16 03:10:36;;;;;;;25.35;21.73;;;;;;;20.11;100.00;100551.78;6180718;23;20377;-79
2022/08/16 03:13:07;;;;;;;25.98;22.17;;;;;;;20.10;100.00;100558.94;6136855;23;20024;-79
2022/08/16 03:15:43;;;;;;;27.20;23.70;;;;;;;20.10;100.00;100555.41;6161421;23;20242;-79
2022/08/16 03:18:18;;;;;;;26.75;23.95;;;;;;;20.10;100.00;100560.75;6184144;23;20028;-79
2022/08/16 03:21:08;;;;;;;29.50;23.40;;;;;;;20.08;100.00;100552.78;6155419;23;20459;-79
2022/08/16 03:23:41;;;;;;;30.92;23.67;;;;;;;20.09;100.00;100556.34;6173120;23;20217;-80
2022/08/16 03:26:12;;;;;;;29.10;24.15;;;;;;;20.11;100.00;100549.97;6160663;23;20301;-79
2022/08/16 03:28:41;;;;;;;34.03;24.98;;;;;;;20.12;100.00;100554.41;6122208;23;20146;-79
2022/08/16 03:31:11;;;;;;;29.50;23.30;;;;;;;20.11;100.00;100560.69;6143335;23;20021;-79
2022/08/16 03:33:42;;;;;;;26.33;23.25;;;;;;;20.12;100.00;100561.56;6181555;23;20138;-80
2022/08/16 03:36:15;;;;;;;32.47;23.30;;;;;;;20.10;100.00;100548.25;6150510;23;20021;-79
2022/08/16 03:39:02;;;;;;;27.45;23.52;;;;;;;20.10;100.00;100545.56;6149112;23;20120;-79
2022/08/16 03:41:31;;;;;;;27.98;23.40;;;;;;;20.09;100.00;100541.16;6122053;23;20021;-80
2022/08/16 03:44:17;;;;;;;28.10;22.95;;;;;;;20.09;100.00;100549.16;6172869;23;20017;-79
2022/08/16 03:47:05;;;;;;;31.90;24.85;;;;;;;20.08;100.00;100547.44;6134527;23;20061;-79
2022/08/16 03:49:39;;;;;;;26.42;23.55;;;;;;;20.06;100.00;100546.66;6146882;23;20387;-79
2022/08/16 03:52:12;;;;;;;26.65;23.00;;;;;;;20.05;100.00;100547.56;6132942;23;20021;-79
2022/08/16 03:54:40;;;;;;;30.20;23.58;;;;;;;20.03;100.00;100549.44;6131213;23;20219;-79
2022/08/16 03:57:26;;;;;;;32.40;23.90;;;;;;;20.02;100.00;100553.06;6152254;23;20025;-79
2022/08/16 04:00:13;;;;;;;29.88;25.42;;;;;;;20.01;100.00;100551.31;6182694;23;20013;-79
2022/08/16 04:03:08;;;;;;;31.00;24.23;;;;;;;20.00;100.00;100549.53;6164140;23;20017;-79
2022/08/16 04:05:45;;;;;;;25.42;22.70;;;;;;;19.98;100.00;100556.75;6155808;23;20656;-79
2022/08/16 04:08:20;;;;;;;29.23;23.33;;;;;;;19.96;100.00;100547.94;6180055;23;20021;-79
2022/08/16 04:10:55;;;;;;;28.27;24.42;;;;;;;19.93;100.00;100559.63;6147641;23;20017;-81
2022/08/16 04:13:27;;;;;;;25.17;22.08;;;;;;;19.91;100.00;100549.94;6174099;23;20017;-81
2022/08/16 04:16:16;;;;;;;29.80;23.38;;;;;;;19.89;100.00;100554.47;6156063;23;20017;-81
2022/08/16 04:19:04;;;;;;;30.40;23.25;;;;;;;19.86;100.00;100545.63;6167872;23;20351;-80
2022/08/16 04:21:35;;;;;;;27.83;24.00;;;;;;;19.85;100.00;100551.94;6148450;23;20314;-80
2022/08/16 04:24:20;;;;;;;27.33;22.73;;;;;;;19.83;100.00;100548.44;6125725;23;20343;-80
2022/08/16 04:26:56;;;;;;;29.45;23.90;;;;;;;19.81;100.00;100549.41;6158522;23;20021;-80
2022/08/16 04:29:26;;;;;;;27.05;23.65;;;;;;;19.78;100.00;100554.91;6148699;23;20028;-79
2022/08/16 04:32:12;;;;;;;27.55;21.95;;;;;;;19.75;100.00;100547.00;6184389;23;20025;-79
2022/08/16 04:34:44;;;;;;;27.05;23.25;;;;;;;19.73;100.00;100539.03;6144064;23;20021;-79
2022/08/16 04:37:13;;;;;;;25.63;22.55;;;;;;;19.73;100.00;100546.19;6152073;23;20013;-80
2022/08/16 04:39:47;;;;;;;27.67;23.95;;;;;;;19.73;100.00;100546.19;6169730;23;20230;-79
2022/08/16 04:42:24;;;;;;;29.48;23.13;;;;;;;19.72;100.00;100549.78;6156474;23;20077;-79
2022/08/16 04:44:58;;;;;;;25.70;21.80;;;;;;;19.72;100.00;100550.66;6163354;23;20069;-79
2022/08/16 04:47:34;;;;;;;27.70;22.20;;;;;;;19.72;100.00;100558.69;6135394;23;20044;-79
2022/08/16 04:50:13;;;;;;;25.75;21.38;;;;;;;19.73;100.00;100555.06;6137198;23;20029;-79
2022/08/16 04:52:58;;;;;;;26.20;21.13;;;;;;;19.77;100.00;100562.06;6161114;23;20355;-79
2022/08/16 04:55:31;;;;;;;23.33;20.42;;;;;;;19.84;100.00;100566.22;6173802;23;20028;-79
2022/08/16 04:58:07;;;;;;;28.60;20.40;;;;;;;19.85;100.00;100567.97;6185038;23;20021;-80
2022/08/16 05:00:59;;;;;;;24.58;20.27;;;;;;;19.84;100.00;100571.56;6159515;23;20690;-79
2022/08/16 05:03:31;;;;;;;24.67;20.95;;;;;;;19.84;100.00;100573.38;6135261;23;20020;-79
2022/08/16 05:06:01;;;;;;;22.90;19.52;;;;;;;19.84;100.00;100576.91;6155373;23;20469;-81
2022/08/16 05:08:36;;;;;;;24.48;21.25;;;;;;;19.84;100.00;100573.38;6174723;23;20139;-78
2022/08/16 05:11:21;;;;;;;27.67;20.00;;;;;;;19.84;100.00;100576.91;6164930;23;20329;-81
2022/08/16 05:13:50;;;;;;;25.75;20.75;;;;;;;19.86;100.00;100587.53;6180143;23;20495;-79
2022/08/16 05:16:27;;;;;;;24.30;19.63;;;;;;;19.87;100.00;100589.31;6185477;23;20028;-80
2022/08/16 05:19:09;;;;;;;22.45;19.58;;;;;;;19.88;100.00;100587.50;6179242;23;20013;-80
2022/08/16 05:21:55;;;;;;;22.42;19.95;;;;;;;19.90;100.00;100582.94;6166907;23;20028;-81
2022/08/16 05:24:26;;;;;;;24.70;20.30;;;;;;;19.94;100.00;100584.56;6150568;23;20498;-81
2022/08/16 05:26:58;;;;;;;25.63;19.85;;;;;;;20.00;100.00;100589.66;6164877;23;20028;-81
2022/08/16 05:29:39;;;;;;;24.13;20.23;;;;;;;20.06;100.00;100597.47;6141387;23;20040;-82
2022/08/16 05:32:27;;;;;;;24.63;19.38;;;;;;;20.14;100.00;100592.66;6153370;23;20028;-81
2022/08/16 05:35:09;;;;;;;21.90;19.45;;;;;;;20.21;100.00;100590.63;6109752;23;20036;-81
2022/08/16 05:37:45;;;;;;;24.48;19.30;;;;;;;20.27;100.00;100590.38;6184079;23;20028;-81
2022/08/16 05:40:17;;;;;;;24.50;20.17;;;;;;;20.31;100.00;100591.97;6182172;23;20035;-79
2022/08/16 05:42:46;;;;;;;27.30;21.55;;;;;;;20.32;100.00;100598.19;6146484;23;20355;-81
2022/08/16 05:45:19;;;;;;;21.58;19.35;;;;;;;20.32;100.00;100590.16;6186492;23;20017;-79
2022/08/16 05:47:51;;;;;;;24.67;21.30;;;;;;;20.32;100.00;100587.47;6177272;23;20071;-83
2022/08/16 05:50:38;;;;;;;24.23;21.75;;;;;;;20.32;100.00;100582.13;6162491;23;20028;-80
2022/08/16 05:53:10;;;;;;;28.27;22.10;;;;;;;20.33;100.00;100583.88;6163696;23;20024;-78
2022/08/16 05:55:51;;;;;;;24.15;21.60;;;;;;;20.38;100.00;100581.91;6140124;23;20020;-79
2022/08/16 05:58:21;;;;;;;25.23;20.13;;;;;;;20.46;100.00;100585.13;6151798;23;20150;-80
2022/08/16 06:01:03;;;;;;;26.58;20.25;;;;;;;20.55;100.00;100587.41;6170898;23;20031;-80
2022/08/16 06:03:36;;;;;;;20.77;17.83;;;;;;;20.67;100.00;100583.34;6112183;23;20253;-85
2022/08/16 06:06:13;;;;;;;27.92;21.33;;;;;;;20.87;100.00;100590.53;6113160;23;20021;-86
2022/08/16 06:08:58;;;;;;;23.95;20.42;;;;;;;21.12;100.00;100593.00;6154233;23;20025;-86
2022/08/16 06:11:28;;;;;;;25.37;20.10;;;;;;;21.43;100.00;100600.50;6132444;23;20142;-84
2022/08/16 06:14:00;;;;;;;23.98;19.50;;;;;;;21.65;100.00;100598.69;6132394;23;20264;-86
2022/08/16 06:16:38;;;;;;;24.77;20.75;;;;;;;21.75;100.00;100600.84;6131780;23;20812;-86
2022/08/16 06:19:07;;;;;;;22.73;19.42;;;;;;;21.79;100.00;100602.44;6159454;23;20020;-86
2022/08/16 06:21:41;;;;;;;23.67;21.23;;;;;;;21.80;100.00;100604.19;6113242;23;20029;-85
2022/08/16 06:24:10;;;;;;;22.83;20.20;;;;;;;21.82;100.00;100606.81;6154005;23;20402;-85
2022/08/16 06:26:58;;;;;;;22.63;19.83;;;;;;;21.86;100.00;100612.88;6161597;23;20386;-85
2022/08/16 06:29:32;;;;;;;22.58;20.15;;;;;;;21.92;100.00;100607.22;6143861;23;20025;-84
2022/08/16 06:32:01;;;;;;;25.48;19.23;;;;;;;21.98;100.00;100612.28;6164697;23;20036;-84
2022/08/16 06:34:31;;;;;;;;;;;;;;;22.02;100.00;100613.88;6130115;23;20447;-85
2022/08/16 06:37:20;;;;;;;21.30;17.92;;;;;;;22.07;100.00;100606.47;6175152;23;19916;-85
2022/08/16 06:39:49;;;;;;;21.15;18.63;;;;;;;22.20;100.00;100612.13;6100595;23;20025;-83
2022/08/16 06:42:44;;;;;;;20.02;17.45;;;;;;;22.36;100.00;100614.94;6149757;23;20412;-85
2022/08/16 06:45:47;;;;;;;22.67;17.92;;;;;;;22.57;100.00;100607.63;6110411;23;20606;-85
2022/08/16 06:48:23;;;;;;;19.33;16.33;;;;;;;22.70;100.00;100615.94;6190894;23;20016;-86
2022/08/16 06:51:03;;;;;;;17.08;15.20;;;;;;;22.75;100.00;100614.75;6167339;23;20017;-85
2022/08/16 06:53:35;;;;;;;15.35;13.85;;;;;;;22.80;100.00;100622.59;6136269;23;20028;-85
2022/08/16 06:56:07;;;;;;;17.75;15.70;;;;;;;22.89;100.00;100626.59;6134058;23;20020;-85
2022/08/16 06:59:10;;;;;;;17.73;14.90;;;;;;;22.93;100.00;100625.47;6169749;23;20017;-85
2022/08/16 07:01:48;;;;;;;18.23;14.63;;;;;;;23.01;100.00;100625.13;6157648;23;21086;-85
2022/08/16 07:04:23;;;;;;;16.73;14.95;;;;;;;22.99;100.00;100630.56;6167507;23;20021;-85
2022/08/16 07:07:04;;;;;;;16.17;14.52;;;;;;;22.93;100.00;100629.06;6171851;23;20013;-84
2022/08/16 07:09:33;;;;;;;15.27;13.73;;;;;;;22.94;100.00;100628.09;6180860;23;20025;-84
2022/08/16 07:12:03;;;;;;;17.23;14.82;;;;;;;23.00;100.00;100626.91;6157964;23;20218;-84
2022/08/16 07:14:35;;;;;;;18.58;14.98;;;;;;;23.06;100.00;100631.13;6188036;23;20363;-84
2022/08/16 07:17:06;;;;;;;16.40;14.35;;;;;;;23.14;100.00;100626.25;6156339;23;20391;-84
2022/08/16 07:19:39;;;;;;;16.48;14.77;;;;;;;23.22;100.00;100629.38;6136822;23;20013;-84
2022/08/16 07:22:35;;;;;;;17.13;14.20;;;;;;;23.33;100.00;100624.31;6139125;23;20044;-85
2022/08/16 07:25:15;;;;;;;18.38;13.98;;;;;;;23.41;100.00;100629.25;6151669;23;20028;-84
2022/08/16 07:27:45;;;;;;;;;;;;;;;23.48;100.00;100633.38;6152422;23;20024;-84
2022/08/16 07:30:18;;;;;;;14.25;12.75;;;;;;;23.52;100.00;100626.88;6129916;23;19916;-83
2022/08/16 07:33:17;;;;;;;14.48;13.05;;;;;;;23.55;100.00;100629.41;5121019;27;20934;-85
2022/08/16 07:36:08;;;;;;;13.40;12.10;;;;;;;23.61;100.00;100633.56;5056821;28;20578;-85
2022/08/16 07:38:44;;;;;;;16.42;12.88;;;;;;;23.65;100.00;100621.69;5072177;28;20047;-78
2022/08/16 07:41:14;;;;;;;15.35;13.75;;;;;;;23.67;100.00;100627.84;5062349;28;20038;-78
2022/08/16 07:43:48;;;;;;;15.80;13.63;;;;;;;23.71;100.00;100620.47;5055112;28;20043;-78
2022/08/16 07:46:19;;;;;;;15.88;13.75;;;;;;;23.71;100.00;100621.34;5083206;28;20039;-78
2022/08/16 07:49:17;;;;;;;16.70;13.73;;;;;;;23.74;100.00;100623.88;5073627;28;20648;-77
2022/08/16 07:51:49;;;;;;;14.43;13.05;;;;;;;23.80;100.00;100627.19;5071476;28;20048;-77
2022/08/16 07:54:27;;;;;;;14.75;13.18;;;;;;;23.86;100.00;100622.34;5066998;28;20404;-78
2022/08/16 07:57:11;;;;;;;18.20;14.43;;;;;;;23.93;100.00;100636.31;5071339;28;20039;-77
2022/08/16 07:59:43;;;;;;;16.10;13.45;;;;;;;23.97;100.00;100631.63;5102903;28;20047;-80
2022/08/16 08:02:17;;;;;;;14.98;13.27;;;;;;;24.02;100.00;100632.25;5050791;28;20040;-77
2022/08/16 08:04:55;;;;;;;15.32;13.65;;;;;;;24.09;100.00;100634.50;5064051;28;20036;-77
2022/08/16 08:07:28;;;;;;;16.25;13.82;;;;;;;24.15;100.00;100643.19;5079383;28;20040;-77
2022/08/16 08:10:04;;;;;;;17.50;13.48;;;;;;;24.21;100.00;100641.00;5029281;28;20036;-77
2022/08/16 08:12:39;;;;;;;15.73;13.27;;;;;;;24.26;100.00;100636.22;5075802;28;20032;-77
2022/08/16 08:15:12;;;;;;;22.77;12.73;;;;;;;24.32;100.00;100643.94;5043050;28;20050;-77
2022/08/16 08:17:45;;;;;;;13.23;11.20;;;;;;;24.31;100.00;100638.69;5060145;28;20044;-78
2022/08/16 08:20:21;;;;;;;14.15;11.15;;;;;;;24.37;100.00;100648.22;5045339;28;20028;-77
2022/08/16 08:22:58;;;;;;;10.02;9.02;;;;;;;24.42;100.00;100643.41;5048993;28;20047;-77
2022/08/16 08:25:44;;;;;;;10.48;9.32;;;;;;;24.49;98.99;100644.81;5066453;28;20050;-77
2022/08/16 08:28:23;;;;;;;14.85;8.32;;;;;;;24.52;98.42;100641.97;5056597;28;20039;-77
2022/08/16 08:31:02;;;;;;;8.93;7.82;;;;;;;24.63;98.67;100652.09;5029378;28;20055;-76
2022/08/16 08:33:35;;;;;;;12.63;9.10;;;;;;;24.71;97.84;100649.84;5052907;28;20047;-77
2022/08/16 08:36:07;;;;;;;8.63;7.83;;;;;;;24.78;96.32;100653.88;5060373;28;20329;-77
2022/08/16 08:38:38;;;;;;;10.60;8.15;;;;;;;24.79;94.48;100652.94;5049910;28;20058;-79
2022/08/16 08:41:18;;;;;;;11.20;7.65;;;;;;;24.82;93.73;100657.28;5014486;28;20044;-78
2022/08/16 08:43:56;;;;;;;8.50;7.55;;;;;;;24.86;94.14;100658.84;5006619;28;20041;-78
2022/08/16 08:46:27;;;;;;;11.93;7.78;;;;;;;24.88;92.78;100668.56;5049431;28;20045;-78
2022/08/16 08:49:04;;;;;;;9.85;7.82;;;;;;;24.94;92.94;100661.09;5011222;28;20349;-78
2022/08/16 08:51:41;;;;;;;8.73;7.93;;;;;;;25.00;91.93;100663.41;5041927;28;20040;-78
2022/08/16 08:54:13;;;;;;;9.02;7.68;;;;;;;25.03;91.40;100664.09;4996171;28;20053;-78
2022/08/16 08:56:53;;;;;;;12.07;7.07;;;;;;;25.07;90.43;100662.94;5040348;28;20056;-78
2022/08/16 08:59:37;;;;;;;7.88;7.07;;;;;;;25.12;89.76;100662.66;5022884;28;20048;-78
2022/08/16 09:02:13;;;;;;;9.20;6.47;;;;;;;25.21;90.11;100667.47;5045173;28;20052;-77
2022/08/16 09:04:51;;;;;;;7.97;6.88;;;;;;;25.28;89.52;100666.19;5017155;28;20055;-77
2022/08/16 09:07:22;;;;;;;9.82;6.82;;;;;;;25.33;88.65;100674.00;5050245;28;20044;-76
2022/08/16 09:09:56;;;;;;;9.88;6.65;;;;;;;25.38;87.89;100671.00;5009004;28;20052;-77
2022/08/16 09:12:38;;;;;;;5.57;5.07;;;;;;;25.44;87.20;100665.22;5036970;28;20154;-77
2022/08/16 09:15:11;;;;;;;9.82;6.30;;;;;;;25.47;86.53;100662.38;5039573;28;20526;-77
2022/08/16 09:17:42;;;;;;;7.47;5.70;;;;;;;25.49;85.71;100672.09;5021389;28;20178;-78
2022/08/16 09:20:30;;;;;;;7.90;5.47;;;;;;;25.56;85.60;100669.88;5036410;28;20043;-79
2022/08/16 09:23:02;;;;;;;6.88;6.15;;;;;;;25.64;85.08;100675.66;5033222;28;20037;-79
2022/08/16 09:25:36;;;;;;;7.05;5.90;;;;;;;25.69;85.25;100670.00;4996914;28;20417;-79
2022/08/16 09:28:08;;;;;;;7.95;5.93;;;;;;;25.71;83.29;100672.56;5034099;28;20043;-78
2022/08/16 09:30:48;;;;;;;5.75;5.22;;;;;;;25.76;84.10;100662.34;5010791;28;20056;-79
2022/08/16 09:33:18;;;;;;;11.23;5.80;;;;;;;25.85;82.99;100668.03;5033351;28;20043;-78
2022/08/16 09:35:49;;;;;;;7.20;5.22;;;;;;;25.95;83.84;100668.34;5056745;28;20048;-77
2022/08/16 09:38:23;;;;;;;6.50;4.60;;;;;;;26.06;82.99;100671.22;5031043;28;20036;-77
2022/08/16 09:41:02;;;;;;;4.10;3.72;;;;;;;26.14;80.71;100670.72;4981181;28;20036;-77
2022/08/16 09:43:33;;;;;;;8.07;4.13;;;;;;;26.24;79.59;100671.88;4999862;28;20706;-78
2022/08/16 09:46:22;;;;;;;4.75;3.95;;;;;;;26.31;78.70;100669.63;4996358;28;20421;-77
2022/08/16 09:49:11;;;;;;;7.22;4.00;;;;;;;26.41;80.16;100678.00;5012608;28;20036;-77
2022/08/16 09:51:39;;;;;;;4.40;4.00;;;;;;;26.52;79.31;100671.88;5032672;28;20431;-77
2022/08/16 09:54:13;;;;;;;6.35;3.80;;;;;;;26.63;78.22;100672.06;5027944;28;20048;-77
2022/08/16 09:56:49;;;;;;;5.22;4.40;;;;;;;26.71;76.75;100674.25;5014043;28;23242;-76
2022/08/16 09:59:22;;;;;;;5.32;4.82;;;;;;;26.72;75.92;100682.25;5049521;28;20405;-77
2022/08/16 10:01:53;;;;;;;8.73;5.15;;;;;;;26.76;75.28;100666.69;5036594;28;20063;-78
2022/08/16 10:04:24;;;;;;;8.57;4.85;;;;;;;26.79;75.46;100674.59;5041072;28;20040;-75
2022/08/16 10:07:02;;;;;;;4.70;4.18;;;;;;;26.85;75.63;100671.47;5041201;28;20045;-76
2022/08/16 10:09:44;;;;;;;4.85;3.60;;;;;;;26.97;75.45;100676.03;5018365;28;20597;-76
2022/08/16 10:15:27;;;;;;;;;;;;;;;27.07;70.53;100673.59;5047510;28;19920;-77
2022/08/16 10:17:58;;;;;;;7.13;4.57;;;;;;;27.12;73.73;100687.66;5062884;28;20290;-76
2022/08/16 10:20:48;;;;;;;6.03;4.80;;;;;;;27.19;73.06;100682.69;5023182;28;20613;-76
2022/08/16 10:23:17;;;;;;;7.30;4.93;;;;;;;27.25;73.29;100686.81;5019644;28;20040;-76
2022/08/16 10:25:47;;;;;;;6.68;5.00;;;;;;;27.32;73.23;100683.59;5045191;28;20442;-77
2022/08/16 10:28:39;;;;;;;6.38;4.05;;;;;;;27.41;72.17;100682.06;4986614;28;20308;-78
2022/08/16 10:31:10;;;;;;;4.97;4.57;;;;;;;27.49;71.65;100678.84;5050471;28;20041;-77
2022/08/16 10:34:00;;;;;;;4.75;3.65;;;;;;;27.57;71.36;100680.03;5054669;28;20045;-78
2022/08/16 10:36:28;;;;;;;7.38;4.47;;;;;;;27.67;68.43;100690.19;5054594;28;20037;-77
2022/08/16 10:39:07;;;;;;;3.95;3.47;;;;;;;27.71;67.95;100680.88;4993349;28;20036;-76
2022/08/16 10:41:35;;;;;;;4.90;4.50;;;;;;;27.75;67.85;100687.81;5010448;28;20228;-77
2022/08/16 10:44:05;;;;;;;4.25;3.85;;;;;;;27.80;67.36;100691.06;5012400;28;20037;-79
2022/08/16 10:46:36;;;;;;;5.85;4.15;;;;;;;27.79;66.09;100684.78;5052687;28;20364;-80
2022/08/16 10:49:10;;;;;;;4.80;3.75;;;;;;;27.84;65.78;100692.56;5000209;28;20039;-80
2022/08/16 10:51:39;;;;;;;5.45;4.20;;;;;;;27.89;65.41;100695.84;5001036;28;20064;-79
2022/08/16 10:54:28;;;;;;;5.50;3.83;;;;;;;27.96;65.52;100699.00;5024245;28;20370;-80
2022/08/16 10:57:00;;;;;;;6.90;4.40;;;;;;;28.02;65.13;100695.81;5064371;28;20044;-79
2022/08/16 10:59:33;;;;;;;5.80;4.47;;;;;;;28.07;63.82;100704.50;5015220;28;20055;-80
2022/08/16 11:02:23;;;;;;;5.72;5.15;;;;;;;28.09;64.13;100701.66;5041586;28;20048;-80
2022/08/16 11:05:14;;;;;;;10.50;4.50;;;;;;;28.15;64.39;100706.66;5032850;28;20057;-79
2022/08/16 11:07:46;;;;;;;6.05;4.47;;;;;;;28.21;63.90;100703.47;5030620;28;20033;-80
2022/08/16 11:10:30;;;;;;;7.38;3.80;;;;;;;28.34;63.65;100704.31;5025145;28;20536;-80
2022/08/16 11:13:24;;;;;;;7.07;3.95;;;;;;;28.45;64.29;100702.63;5032998;28;20068;-81
2022/08/16 11:16:14;;;;;;;6.28;4.07;;;;;;;28.49;62.01;100702.31;5032675;28;20041;-81
2022/08/16 11:19:05;;;;;;;7.80;4.15;;;;;;;28.58;61.00;100714.31;5041011;28;20424;-80
2022/08/16 11:21:42;;;;;;;5.55;4.07;;;;;;;28.61;60.38;100716.81;5049729;28;20516;-79
2022/08/16 11:24:31;;;;;;;7.10;3.80;;;;;;;28.66;59.42;100716.44;5026245;28;20258;-80
2022/08/16 11:27:14;;;;;;;5.40;4.90;;;;;;;28.64;58.46;100719.31;5015341;28;20032;-79
2022/08/16 11:29:49;;;;;;;4.70;4.20;;;;;;;28.61;57.89;100724.94;4983557;28;20060;-79
2022/08/16 11:32:20;;;;;;;5.63;4.03;;;;;;;28.65;59.13;100721.00;4996811;28;20403;-79
2022/08/16 11:34:58;;;;;;;5.30;4.38;;;;;;;28.70;59.05;100724.25;4999307;28;20067;-79
2022/08/16 11:37:57;;;;;;;6.30;4.30;;;;;;;28.78;58.85;100727.25;5030687;28;20032;-79
2022/08/16 11:40:51;;;;;;;7.22;4.90;;;;;;;28.86;59.37;100732.09;4995923;28;20064;-79
2022/08/16 11:43:27;;;;;;;4.72;4.38;;;;;;;28.92;58.82;100731.66;4997371;28;20241;-79
2022/08/16 11:45:57;;;;;;;7.78;5.07;;;;;;;29.03;58.89;100741.66;5051773;28;20033;-80
2022/08/16 11:48:47;;;;;;;5.55;4.88;;;;;;;29.10;58.18;100739.34;5022603;28;20064;-80
2022/08/16 11:51:16;;;;;;;;;;;;;;;29.10;56.65;100740.22;5033875;28;20056;-80
2022/08/16 11:53:45;;;;;;;7.85;4.90;;;;;;;29.15;58.95;100753.47;5001945;28;19928;-79
2022/08/16 11:56:13;;;;;;;6.72;5.25;;;;;;;29.12;57.31;100745.53;5013854;28;20382;-79
2022/08/16 11:58:47;;;;;;;12.27;4.07;;;;;;;29.19;58.19;100746.81;4974528;28;20521;-79